Friday, August 29, 2014
08:07 UTC
  |  Log In   |  Register Free
Airport Search:

Bishop International Airport
(KFNT)

FAA data valid effective July 24, 2014 until September 18, 2014 (unless otherwise noted).

 
 
 
 
 
 
 
 
 
 
 
 
 
 

Current Aviation Weather for Bishop International Airport (KFNT)

The most recent METAR observation for KFNT was updated at: 0653 UTC
METAR Summary (Translated METAR)
KFNT
290653Z AUTO 12003KT 10SM CLR 15/10 A3013 RMK AO2 SLP201 T01500100
KRNP
(17.4 nm NW from KFNT)
290654Z AUTO 10003KT 10SM CLR 14/13 A3012 RMK AO2 T01360127
TAF Summary (Translated TAF)
KFNT
290523Z 2906/3006 03003KT P6SM BKN250 FM291200 14007KT P6SM SCT080 OVC120 FM291800 17010KT P6SM SCT050 OVC120
KPTK
(23 nm SE from KFNT)
290523Z 2906/3006 VRB04KT P6SM BKN250 FM291200 14007KT P6SM SCT080 OVC120 FM291800 17010KT P6SM SCT050 OVC120
  Airport Weather Conditions for KFNT

 Current Weather at FNT
59° F
Fair
Southeast winds at 3.5 mph
FNT NOAA Radar

Pressure: 30.13 in
Humidity: 72%
Wind: Southeast at 3.5 MPH (3 KT)
Dew Point: 50.0°F
Visibility: 10.00 mi


Airport Weather Forecast for KFNT

Translated METAR and TAF for KFNT
Translated METAR for KFNT (0801 UTC 29 August 2014)
found at http://aviationweather.gov/adds/metars/
 
METAR text: KFNT 290753Z AUTO 11004KT 10SM CLR 15/10 A3012 RMK AO2 SLP195 T01500100
Conditions at: KFNT (FLINT , MI, US) observed 0753 UTC 29 August 2014
Temperature: 15.0°C (59°F)
Dewpoint: 10.0°C (50°F) [RH = 72%]
Pressure (altimeter): 30.12 inches Hg (1020.1 mb)
[Sea-level pressure: 1019.5 mb]
Winds: from the ESE (110 degrees) at 5 MPH (4 knots; 2.1 m/s)
Visibility: 10 or more miles (16+ km)
Ceiling: at least 12,000 feet AGL
Clouds: sky clear below 12,000 feet AGL
Weather: automated observation with no human augmentation;
there may or may not be significant weather present at this time
Translated TAF for KFNT
Forecast for: KFNT (FLINT , MI, US)
TAF Text: KFNT 290523Z 2906/3006 03003KT P6SM BKN250
Forecast period: 0600 to 1200 UTC 29 August 2014
Forecast type: FROM: standard forecast or significant change
Winds: from the NNE (30 degrees) at 3 MPH (3 knots; 1.6 m/s)
Visibility: 6 or more miles (10+ km)
Ceiling: 25000 feet AGL
Clouds: broken clouds at 25000 feet AGL
Weather: no significant weather forecast for this period
TAF Text: FM291200 14007KT P6SM SCT080 OVC120
Forecast period: 1200 to 1800 UTC 29 August 2014
Forecast type: FROM: standard forecast or significant change
Winds: from the SE (140 degrees) at 8 MPH (7 knots; 3.6 m/s)
Visibility: 6 or more miles (10+ km)
Ceiling: 12000 feet AGL
Clouds: scattered clouds at 8000 feet AGL
overcast cloud deck at 12000 feet AGL
Weather: no significant weather forecast for this period
TAF Text: FM291800 17010KT P6SM SCT050 OVC120
Forecast period: 1800 UTC 29 August 2014 to 0600 UTC 30 August 2014
Forecast type: FROM: standard forecast or significant change
Winds: from the S (170 degrees) at 12 MPH (10 knots; 5.2 m/s)
Visibility: 6 or more miles (10+ km)
Ceiling: 12000 feet AGL
Clouds: scattered clouds at 5000 feet AGL
overcast cloud deck at 12000 feet AGL
Weather: no significant weather forecast for this period

Find All Airport Services Find A Hotel Find A Rental Car Find A Golf Course Find A Restaurant $100 Hamburger



FBO's on the Field
FBO Company Facility Photos Services Transportation Aviation Fuel Prices: Prices include tax
Catering Weather Repair Courtesy Rental Type 100LL JetA JetA+ MOGAS 8087
 
Avflight Flint

This FBO has not yet been rated
FS:Avfuel
Last Updated: Aug-11
Login to update fuel prices
SS:
Contact Avflight FlintMore FBO Information
 
Add another FBO Facility Photos Catering Weather Repair Courtesy Rental Type 100LL JetA JetA+ MOGAS 8087
Services Transportation Aviation Fuel Prices: Prices include tax


GlobalAir.com Airport Resource Center model-print
model-print
model-print
model-print